createdAt,value
2022-12-14T00:00:09.557Z,17.23
2022-12-14T00:02:43.609Z,18.95
2022-12-14T00:05:10.567Z,15.80
2022-12-14T00:07:37.345Z,16.98
2022-12-14T00:10:17.490Z,18.13
2022-12-14T00:12:48.650Z,13.13
2022-12-14T00:15:15.457Z,17.33
2022-12-14T00:17:48.471Z,16.00
2022-12-14T00:20:15.338Z,15.98
2022-12-14T00:22:42.255Z,18.13
2022-12-14T00:25:15.451Z,14.77
2022-12-14T00:27:46.359Z,13.60
2022-12-14T00:30:24.495Z,14.27
2022-12-14T00:32:56.851Z,13.18
2022-12-14T00:35:23.923Z,14.25
2022-12-14T00:38:05.450Z,14.73
2022-12-14T00:40:46.507Z,14.07
2022-12-14T00:43:13.407Z,13.63
2022-12-14T00:45:46.534Z,11.77
2022-12-14T00:48:21.508Z,12.27
2022-12-14T00:50:56.522Z,13.02
2022-12-14T00:53:24.426Z,12.32
2022-12-14T00:55:57.498Z,12.07
2022-12-14T00:58:25.454Z,11.48
2022-12-14T01:01:14.642Z,12.63
2022-12-14T01:03:49.568Z,12.48
2022-12-14T01:06:18.880Z,14.48
2022-12-14T01:08:46.863Z,11.50
2022-12-14T01:11:21.538Z,16.40
2022-12-14T01:13:49.446Z,15.73
2022-12-14T01:16:23.580Z,11.80
2022-12-14T01:18:50.497Z,12.73
2022-12-14T01:21:27.570Z,14.60
2022-12-14T01:23:59.760Z,14.48
2022-12-14T01:29:08.045Z,17.50
2022-12-14T01:31:43.555Z,14.45
2022-12-14T01:34:15.612Z,14.07
2022-12-14T01:36:48.544Z,14.07
2022-12-14T01:39:16.586Z,14.38
2022-12-14T01:41:56.587Z,13.02
2022-12-14T01:44:23.421Z,14.30
2022-12-14T01:47:12.156Z,13.00
2022-12-14T01:50:15.548Z,13.60
2022-12-14T01:55:41.637Z,11.40
2022-12-14T01:58:26.599Z,13.00
2022-12-14T02:01:00.935Z,13.57
2022-12-14T02:03:42.635Z,14.55
2022-12-14T02:06:17.139Z,13.55
2022-12-14T02:08:54.679Z,17.23
2022-12-14T02:11:42.631Z,12.15
2022-12-14T02:14:09.402Z,14.25
2022-12-14T02:16:43.591Z,16.55
2022-12-14T02:19:10.321Z,16.08
2022-12-14T02:22:08.662Z,12.57
2022-12-14T02:24:54.135Z,14.10
2022-12-14T02:27:45.652Z,14.57
2022-12-14T02:30:24.964Z,15.38
2022-12-14T02:33:22.645Z,19.35
2022-12-14T02:36:01.627Z,15.13
2022-12-14T02:38:43.703Z,17.10
2022-12-14T02:41:38.232Z,16.90
2022-12-14T02:44:15.642Z,15.93
2022-12-14T02:47:09.665Z,13.60
2022-12-14T02:50:20.700Z,15.88
2022-12-14T02:53:04.690Z,15.60
2022-12-14T02:55:43.703Z,16.10
2022-12-14T02:58:20.731Z,14.00
2022-12-14T03:00:54.904Z,16.52
2022-12-14T03:03:22.963Z,16.35
2022-12-14T03:06:04.712Z,14.32
2022-12-14T03:08:34.381Z,14.57
2022-12-14T03:11:12.740Z,13.85
2022-12-14T03:13:45.358Z,15.05
2022-12-14T03:16:35.753Z,14.40
2022-12-14T03:19:13.940Z,15.88
2022-12-14T03:22:00.749Z,15.20
2022-12-14T03:24:36.893Z,14.25
2022-12-14T03:27:19.764Z,15.45
2022-12-14T03:29:59.737Z,16.55
2022-12-14T03:32:30.652Z,16.35
2022-12-14T03:35:10.723Z,16.27
2022-12-14T03:37:53.433Z,14.30
2022-12-14T03:40:35.801Z,15.48
2022-12-14T03:43:18.715Z,14.80
2022-12-14T03:46:29.792Z,14.88
2022-12-14T03:49:13.776Z,14.32
2022-12-14T03:52:12.773Z,13.57
2022-12-14T03:54:50.790Z,16.48
2022-12-14T03:57:59.784Z,14.45
2022-12-14T04:00:36.852Z,15.60
2022-12-14T04:03:18.860Z,11.75
2022-12-14T04:05:55.812Z,12.55
2022-12-14T04:08:42.413Z,14.55
2022-12-14T04:11:38.859Z,15.45
2022-12-14T04:14:37.066Z,13.30
2022-12-14T04:17:35.811Z,14.20
2022-12-14T04:20:31.219Z,18.13
2022-12-14T04:23:10.820Z,17.83
2022-12-14T04:26:05.464Z,17.65
2022-12-14T04:29:15.825Z,15.57
2022-12-14T04:31:50.184Z,17.77
2022-12-14T04:34:26.800Z,17.17
2022-12-14T04:37:00.102Z,15.90
2022-12-14T04:39:59.816Z,17.83
2022-12-14T04:42:33.071Z,16.92
2022-12-14T04:45:21.866Z,15.73
2022-12-14T04:47:57.112Z,14.70
2022-12-14T04:50:40.899Z,17.25
2022-12-14T04:53:17.610Z,15.95
2022-12-14T04:55:59.852Z,16.20
2022-12-14T04:58:29.690Z,17.27
2022-12-14T05:01:17.955Z,20.73
2022-12-14T05:03:54.283Z,21.65
2022-12-14T05:07:10.871Z,18.83
2022-12-14T05:09:51.926Z,20.35
2022-12-14T05:12:49.899Z,17.88
2022-12-14T05:15:30.919Z,20.80
2022-12-14T05:18:09.891Z,17.55
2022-12-14T05:20:42.901Z,18.90
2022-12-14T05:23:09.854Z,16.38
2022-12-14T05:25:42.920Z,17.33
2022-12-14T05:28:19.927Z,19.15
2022-12-14T05:30:48.958Z,18.00
2022-12-14T05:33:27.242Z,21.67
2022-12-14T05:35:54.199Z,19.88
2022-12-14T05:38:20.993Z,21.52
2022-12-14T05:40:53.961Z,22.83
2022-12-14T05:43:27.184Z,20.80
2022-12-14T05:46:02.017Z,18.65
2022-12-14T05:48:35.953Z,24.40
2022-12-14T05:51:11.707Z,20.58
2022-12-14T05:53:45.936Z,18.63
2022-12-14T05:56:19.956Z,20.50
2022-12-14T05:58:56.970Z,20.70
2022-12-14T06:01:23.917Z,23.58
2022-12-14T06:04:00.009Z,20.67
2022-12-14T06:06:26.938Z,18.35
2022-12-14T06:08:59.935Z,22.45
2022-12-14T06:11:28.294Z,23.35
2022-12-14T06:14:02.015Z,23.08
2022-12-14T06:16:28.940Z,19.73
2022-12-14T06:19:04.990Z,20.45
2022-12-14T06:21:39.208Z,20.47
2022-12-14T06:24:13.976Z,22.38
2022-12-14T06:26:47.018Z,20.00
2022-12-14T06:29:17.795Z,21.63
2022-12-14T06:31:51.983Z,20.20
2022-12-14T06:34:21.281Z,18.55
2022-12-14T06:36:51.769Z,20.02
2022-12-14T06:39:25.025Z,19.10
2022-12-14T06:41:51.964Z,20.27
2022-12-14T06:44:24.994Z,21.27
2022-12-14T06:46:51.948Z,20.58
2022-12-14T06:49:32.020Z,18.70
2022-12-14T06:51:58.819Z,20.55
2022-12-14T06:54:32.071Z,19.70
2022-12-14T06:56:58.827Z,19.73
2022-12-14T06:59:25.550Z,18.80
2022-12-14T07:01:59.205Z,22.45
2022-12-14T07:04:26.161Z,21.60
2022-12-14T07:07:05.075Z,21.25
2022-12-14T07:09:33.005Z,21.10
2022-12-14T07:12:07.179Z,21.83
2022-12-14T07:14:34.036Z,19.92
2022-12-14T07:17:01.009Z,17.52
2022-12-14T07:19:34.161Z,17.65
2022-12-14T07:22:05.187Z,17.98
2022-12-14T07:24:39.109Z,17.02
2022-12-14T07:27:06.260Z,16.30
2022-12-14T07:29:35.002Z,15.77
2022-12-14T07:32:08.102Z,17.05
2022-12-14T07:34:41.106Z,16.33
2022-12-14T07:37:07.880Z,19.42
2022-12-14T07:39:41.116Z,14.23
2022-12-14T07:42:08.222Z,14.30
2022-12-14T07:44:41.134Z,14.93
2022-12-14T07:47:09.057Z,16.92
2022-12-14T07:49:44.400Z,15.85
2022-12-14T07:52:22.404Z,18.50
2022-12-14T07:54:56.130Z,19.02
2022-12-14T07:57:32.078Z,17.52
2022-12-14T08:00:05.113Z,15.07
2022-12-14T08:02:32.585Z,17.73
2022-12-14T08:05:12.090Z,18.60
2022-12-14T08:07:46.179Z,17.30
2022-12-14T08:10:12.923Z,16.42
2022-12-14T08:12:40.108Z,15.05
2022-12-14T08:15:14.143Z,16.67
2022-12-14T08:17:40.919Z,18.88
2022-12-14T08:20:15.231Z,17.90
2022-12-14T08:22:48.146Z,18.33
2022-12-14T08:25:14.996Z,19.80
2022-12-14T08:27:44.455Z,18.45
2022-12-14T08:30:18.167Z,23.08
2022-12-14T08:32:44.983Z,21.80
2022-12-14T08:35:18.222Z,21.95
2022-12-14T08:37:51.264Z,22.73
2022-12-14T08:40:24.188Z,23.42
2022-12-14T08:42:54.019Z,21.67
2022-12-14T08:45:21.045Z,22.02
2022-12-14T08:48:00.183Z,21.67
2022-12-14T08:50:34.310Z,21.60
2022-12-14T08:53:07.261Z,19.48
2022-12-14T08:55:38.700Z,19.10
2022-12-14T08:58:06.611Z,20.10
2022-12-14T09:00:40.353Z,19.98
2022-12-14T09:03:14.353Z,20.73
2022-12-14T09:05:41.290Z,22.50
2022-12-14T09:08:14.407Z,17.48
2022-12-14T09:10:41.126Z,21.63
2022-12-14T09:13:08.622Z,20.92
2022-12-14T09:15:42.361Z,18.15
2022-12-14T09:18:11.497Z,21.40
2022-12-14T09:20:38.397Z,20.83
2022-12-14T09:23:18.290Z,19.73
2022-12-14T09:25:45.327Z,19.00
2022-12-14T09:28:13.068Z,19.80
2022-12-14T09:30:46.291Z,19.27
2022-12-14T09:33:13.049Z,19.90
2022-12-14T09:35:46.265Z,18.95
2022-12-14T09:38:13.066Z,20.92
2022-12-14T09:40:49.307Z,21.33
2022-12-14T09:43:41.003Z,17.35
2022-12-14T09:46:45.291Z,19.48
2022-12-14T09:49:29.895Z,17.23
2022-12-14T09:52:08.268Z,17.75
2022-12-14T09:54:38.057Z,18.45
2022-12-14T09:57:30.322Z,19.40
2022-12-14T09:59:57.301Z,20.95
2022-12-14T10:02:32.539Z,21.20
2022-12-14T10:05:12.023Z,21.15
2022-12-14T10:07:56.429Z,19.05
2022-12-14T10:10:38.303Z,24.38
2022-12-14T10:13:26.954Z,20.83
2022-12-14T10:16:20.384Z,16.60
2022-12-14T10:19:01.205Z,18.15
2022-12-14T10:22:05.344Z,19.38
2022-12-14T10:27:13.400Z,21.75
2022-12-14T10:30:00.246Z,18.73
2022-12-14T10:32:48.363Z,20.60
2022-12-14T10:35:26.283Z,19.85
2022-12-14T10:38:34.413Z,18.63
2022-12-14T10:41:22.151Z,15.20
2022-12-14T10:44:30.422Z,17.65
2022-12-14T10:47:16.796Z,21.15
2022-12-14T10:50:02.404Z,17.60
2022-12-14T10:52:41.445Z,17.67
2022-12-14T10:55:42.452Z,17.13
2022-12-14T10:58:19.377Z,15.35
2022-12-14T11:00:52.240Z,18.63
2022-12-14T11:03:25.529Z,14.43
2022-12-14T11:06:14.440Z,15.13
2022-12-14T11:08:48.371Z,16.60
2022-12-14T11:11:27.515Z,17.20
2022-12-14T11:14:24.426Z,17.00
2022-12-14T11:16:54.937Z,18.35
2022-12-14T11:19:31.494Z,17.85
2022-12-14T11:22:14.727Z,15.35
2022-12-14T11:24:55.415Z,18.17
2022-12-14T11:27:28.431Z,18.08
2022-12-14T11:30:01.524Z,19.63
2022-12-14T11:32:32.869Z,21.13
2022-12-14T11:35:06.466Z,20.60
2022-12-14T11:37:35.596Z,21.48
2022-12-14T11:40:13.574Z,21.17
2022-12-14T11:42:49.213Z,20.73
2022-12-14T11:45:31.502Z,20.15
2022-12-14T11:48:13.623Z,20.73
2022-12-14T11:50:49.469Z,21.05
2022-12-14T11:53:30.481Z,20.42
2022-12-14T11:56:06.525Z,22.65
2022-12-14T11:58:48.317Z,24.05
2022-12-14T12:01:24.792Z,23.98
2022-12-14T12:03:56.942Z,20.63
2022-12-14T12:06:35.556Z,30.50
2022-12-14T12:09:08.948Z,24.17
2022-12-14T12:11:42.557Z,24.08
2022-12-14T12:14:48.523Z,21.05
2022-12-14T12:17:26.614Z,20.80
2022-12-14T12:19:53.544Z,18.33
2022-12-14T12:22:21.733Z,15.38
2022-12-14T12:25:30.884Z,15.43
2022-12-14T12:28:28.966Z,15.02
2022-12-14T12:31:10.952Z,17.73
2022-12-14T12:34:08.876Z,16.25
2022-12-14T12:36:38.483Z,14.35
2022-12-14T12:39:22.557Z,18.10
2022-12-14T12:42:03.570Z,15.60
2022-12-14T12:44:59.590Z,17.15
2022-12-14T12:48:02.804Z,15.57
2022-12-14T12:50:43.625Z,15.60
2022-12-14T12:53:26.337Z,16.23
2022-12-14T12:56:05.779Z,14.25
2022-12-14T12:58:35.314Z,13.02
2022-12-14T13:01:23.780Z,13.18
2022-12-14T13:04:01.631Z,11.82
2022-12-14T13:06:41.628Z,12.10
2022-12-14T13:09:40.767Z,14.35
2022-12-14T13:12:40.600Z,14.00
2022-12-14T13:15:43.657Z,14.02
2022-12-14T13:19:18.611Z,15.18
2022-12-14T13:21:39.157Z,17.08
2022-12-14T13:24:17.643Z,14.38
2022-12-14T13:27:22.068Z,13.23
2022-12-14T13:30:19.630Z,12.45
2022-12-14T13:33:24.305Z,13.00
2022-12-14T13:36:19.634Z,12.13
2022-12-14T13:39:30.692Z,12.80
2022-12-14T13:42:08.198Z,12.68
2022-12-14T13:44:55.729Z,14.80
2022-12-14T13:47:35.686Z,12.38
2022-12-14T13:50:35.479Z,15.77
2022-12-14T13:53:03.313Z,12.00
2022-12-14T13:55:58.712Z,13.07
2022-12-14T13:58:46.814Z,11.75
2022-12-14T14:01:21.753Z,14.90
2022-12-14T14:03:58.816Z,12.02
2022-12-14T14:06:37.995Z,13.88
2022-12-14T14:09:30.743Z,14.63
2022-12-14T14:14:46.749Z,11.52
2022-12-14T14:17:23.757Z,13.95
2022-12-14T14:19:59.830Z,12.23
2022-12-14T14:22:29.898Z,12.00
2022-12-14T14:25:12.840Z,12.15
2022-12-14T14:27:50.620Z,11.88
2022-12-14T14:30:42.739Z,13.80
2022-12-14T14:33:47.248Z,11.00
2022-12-14T14:36:42.659Z,12.88
2022-12-14T14:42:59.222Z,12.60
2022-12-14T14:45:55.784Z,14.98
2022-12-14T14:48:34.879Z,18.58
2022-12-14T14:51:18.888Z,16.55
2022-12-14T14:53:46.485Z,15.77
2022-12-14T14:56:35.792Z,17.70
2022-12-14T14:59:29.741Z,17.02
2022-12-14T15:02:06.874Z,14.70
2022-12-14T15:04:57.036Z,15.05
2022-12-14T15:07:38.802Z,18.38
2022-12-14T15:10:24.243Z,13.10
2022-12-14T15:13:25.906Z,17.67
2022-12-14T15:15:56.275Z,15.50
2022-12-14T15:18:37.790Z,16.58
2022-12-14T15:21:06.563Z,16.52
2022-12-14T15:23:49.505Z,18.48
2022-12-14T15:26:28.868Z,15.68
2022-12-14T15:29:06.858Z,16.25
2022-12-14T15:31:41.866Z,19.67
2022-12-14T15:34:22.863Z,18.33
2022-12-14T15:36:50.706Z,15.85
2022-12-14T15:39:44.811Z,16.00
2022-12-14T15:42:21.881Z,16.38
2022-12-14T15:45:00.817Z,15.25
2022-12-14T15:47:29.998Z,20.75
2022-12-14T15:50:22.880Z,17.92
2022-12-14T15:52:57.882Z,18.77
2022-12-14T15:55:42.706Z,15.57
2022-12-14T15:58:49.860Z,16.95
2022-12-14T16:01:51.747Z,15.00
2022-12-14T16:04:30.841Z,13.30
2022-12-14T16:07:19.990Z,14.77
2022-12-14T16:09:51.338Z,14.23
2022-12-14T16:12:46.888Z,12.67
2022-12-14T16:15:25.951Z,14.90
2022-12-14T16:18:06.857Z,13.40
2022-12-14T16:20:37.917Z,21.48
2022-12-14T16:23:34.459Z,18.05
2022-12-14T16:26:21.925Z,16.10
2022-12-14T16:28:55.877Z,17.88
2022-12-14T16:31:31.042Z,16.00
2022-12-14T16:34:19.402Z,16.23
2022-12-14T16:37:30.518Z,47.03
2022-12-14T16:39:47.890Z,35.63
2022-12-14T16:42:30.924Z,31.25
2022-12-14T16:44:57.751Z,35.50
2022-12-14T16:47:34.932Z,29.70
2022-12-14T16:50:11.475Z,27.35
2022-12-14T16:52:51.010Z,26.23
2022-12-14T16:55:20.155Z,22.88
2022-12-14T16:57:59.921Z,23.05
2022-12-14T17:00:35.971Z,18.75
2022-12-14T17:03:27.155Z,22.23
2022-12-14T17:06:04.920Z,17.85
2022-12-14T17:08:35.639Z,18.70
2022-12-14T17:11:09.059Z,18.27
2022-12-14T17:13:35.877Z,18.05
2022-12-14T17:16:13.031Z,16.52
2022-12-14T17:18:41.660Z,19.15
2022-12-14T17:21:30.005Z,19.95
2022-12-14T17:23:57.675Z,18.33
2022-12-14T17:26:39.952Z,21.27
2022-12-14T17:31:47.738Z,20.35
2022-12-14T17:34:24.019Z,19.75
2022-12-14T17:36:51.090Z,18.55
2022-12-14T17:39:25.031Z,19.25
2022-12-14T17:41:59.984Z,18.23
2022-12-14T17:44:34.012Z,18.30
2022-12-14T17:47:07.066Z,22.13
2022-12-14T17:49:34.344Z,26.25
2022-12-14T17:52:21.085Z,22.52
2022-12-14T17:54:48.099Z,31.20
2022-12-14T17:57:30.034Z,29.48
2022-12-14T18:00:15.508Z,24.85
2022-12-14T18:02:53.145Z,24.65
2022-12-14T18:05:28.015Z,23.83
2022-12-14T18:08:04.055Z,27.83
2022-12-14T18:10:31.378Z,29.63
2022-12-14T18:13:05.011Z,26.08
2022-12-14T18:15:37.697Z,34.22
2022-12-14T18:18:12.302Z,31.05
2022-12-14T18:20:41.730Z,38.22
2022-12-14T18:23:25.143Z,43.20
2022-12-14T18:26:04.108Z,41.33
2022-12-14T18:28:38.017Z,50.53
2022-12-14T18:31:14.228Z,49.05
2022-12-14T18:33:43.169Z,67.82
2022-12-14T18:36:18.189Z,59.92
2022-12-14T18:38:52.196Z,48.88
2022-12-14T18:41:23.358Z,48.88
2022-12-14T18:43:57.142Z,45.72
2022-12-14T18:46:24.927Z,37.03
2022-12-14T18:48:58.191Z,36.60
2022-12-14T18:51:26.744Z,32.78
2022-12-14T18:54:02.096Z,31.98
2022-12-14T18:56:29.848Z,32.15
2022-12-14T18:59:22.255Z,25.88
2022-12-14T19:01:49.820Z,25.05
2022-12-14T19:04:23.295Z,25.58
2022-12-14T19:06:57.456Z,22.20
2022-12-14T19:09:31.466Z,24.02
2022-12-14T19:11:58.433Z,26.00
2022-12-14T19:14:32.388Z,19.98
2022-12-14T19:16:59.255Z,19.92
2022-12-14T19:19:38.075Z,19.38
2022-12-14T19:22:08.273Z,19.13
2022-12-14T19:24:46.540Z,16.38
2022-12-14T19:27:42.594Z,19.55
2022-12-14T19:30:23.252Z,23.95
2022-12-14T19:33:02.171Z,22.73
2022-12-14T19:35:35.276Z,27.80
2022-12-14T19:38:02.316Z,25.55
2022-12-14T19:40:35.221Z,23.83
2022-12-14T19:43:08.252Z,24.55
2022-12-14T19:45:41.251Z,25.55
2022-12-14T19:48:14.254Z,21.95
2022-12-14T19:50:49.524Z,21.75
2022-12-14T19:53:21.579Z,20.27
2022-12-14T19:56:00.239Z,26.33
2022-12-14T19:58:28.491Z,25.17
2022-12-14T20:01:02.238Z,22.48
2022-12-14T20:03:35.927Z,23.92
2022-12-14T20:06:12.284Z,22.95
2022-12-14T20:08:39.280Z,21.33
2022-12-14T20:11:15.248Z,20.80
2022-12-14T20:13:42.277Z,20.70
2022-12-14T20:16:23.308Z,18.98
2022-12-14T20:18:50.459Z,18.88
2022-12-14T20:21:22.150Z,19.55
2022-12-14T20:23:57.299Z,22.65
2022-12-14T20:26:24.890Z,18.83
2022-12-14T20:29:01.290Z,19.48
2022-12-14T20:31:35.357Z,20.20
2022-12-14T20:34:04.807Z,20.08
2022-12-14T20:36:38.278Z,19.77
2022-12-14T20:39:05.769Z,16.45
2022-12-14T20:41:40.274Z,15.32
2022-12-14T20:44:11.924Z,16.48
2022-12-14T20:46:48.353Z,20.35
2022-12-14T20:49:25.332Z,17.88
2022-12-14T20:51:52.246Z,20.60
2022-12-14T20:54:20.242Z,16.88
2022-12-14T20:56:53.292Z,17.58
2022-12-14T20:59:26.322Z,15.70
2022-12-14T21:01:56.600Z,15.80
2022-12-14T21:04:23.719Z,14.38
2022-12-14T21:06:57.302Z,13.65
2022-12-14T21:09:24.149Z,17.10
2022-12-14T21:12:16.358Z,14.88
2022-12-14T21:14:43.397Z,15.88
2022-12-14T21:17:17.345Z,15.95
2022-12-14T21:19:50.408Z,14.50
2022-12-14T21:22:26.654Z,12.63
2022-12-14T21:25:09.006Z,14.00
2022-12-14T21:27:47.658Z,14.48
2022-12-14T21:30:14.623Z,14.70
2022-12-14T21:32:43.741Z,14.23
2022-12-14T21:35:17.318Z,15.32
2022-12-14T21:37:51.491Z,14.40
2022-12-14T21:40:39.201Z,15.32
2022-12-14T21:43:12.333Z,16.13
2022-12-14T21:45:39.226Z,14.77
2022-12-14T21:48:12.624Z,13.90
2022-12-14T21:50:42.421Z,16.50
2022-12-14T21:53:09.239Z,18.98
2022-12-14T21:55:42.376Z,16.38
2022-12-14T21:58:18.637Z,16.40
2022-12-14T22:00:52.542Z,15.00
2022-12-14T22:03:19.381Z,16.42
2022-12-14T22:05:59.674Z,16.08
2022-12-14T22:08:26.563Z,14.52
2022-12-14T22:10:53.420Z,13.73
2022-12-14T22:13:26.826Z,14.68
2022-12-14T22:15:54.894Z,14.82
2022-12-14T22:18:21.738Z,15.00
2022-12-14T22:20:56.392Z,15.60
2022-12-14T22:23:30.672Z,14.15
2022-12-14T22:26:00.412Z,15.57
2022-12-14T22:28:27.187Z,15.00
2022-12-14T22:31:00.650Z,14.90
2022-12-14T22:33:30.472Z,14.38
2022-12-14T22:36:09.433Z,15.10
2022-12-14T22:38:36.228Z,17.00
2022-12-14T22:41:11.402Z,14.80
2022-12-14T22:43:47.018Z,17.35
2022-12-14T22:46:22.717Z,15.98
2022-12-14T22:48:49.554Z,18.20
2022-12-14T22:51:16.472Z,16.00
2022-12-14T22:53:51.555Z,16.42
2022-12-14T22:56:21.299Z,19.80
2022-12-14T22:59:03.705Z,21.27
2022-12-14T23:01:30.838Z,16.83
2022-12-14T23:03:58.655Z,20.92
2022-12-14T23:06:32.598Z,17.92
2022-12-14T23:09:18.272Z,17.98
2022-12-14T23:12:11.904Z,17.83
2022-12-14T23:14:58.043Z,19.83
2022-12-14T23:17:54.754Z,18.38
2022-12-14T23:23:38.747Z,17.08
2022-12-14T23:26:24.036Z,16.25
2022-12-14T23:29:15.745Z,16.00
2022-12-14T23:32:00.948Z,14.00
2022-12-14T23:34:52.491Z,16.17
2022-12-14T23:37:44.504Z,18.25
2022-12-14T23:40:30.372Z,19.20
2022-12-14T23:43:22.485Z,16.45
2022-12-14T23:46:08.037Z,17.15
2022-12-14T23:48:59.623Z,17.05
2022-12-14T23:51:45.312Z,15.95
2022-12-14T23:54:37.520Z,17.63
2022-12-14T23:57:26.039Z,18.67
